createdAt,value
2022-12-22T00:01:34.143Z,9.87
2022-12-22T00:04:19.612Z,9.89
2022-12-22T00:07:04.904Z,9.89
2022-12-22T00:09:49.996Z,9.95
2022-12-22T00:12:37.219Z,9.88
2022-12-22T00:15:24.014Z,9.94
2022-12-22T00:18:09.652Z,9.88
2022-12-22T00:20:55.064Z,9.89
2022-12-22T00:23:40.355Z,9.95
2022-12-22T00:26:27.439Z,9.98
2022-12-22T00:29:12.884Z,10.01
2022-12-22T00:31:59.712Z,10.03
2022-12-22T00:34:46.564Z,10.11
2022-12-22T00:37:32.921Z,10.13
2022-12-22T00:40:19.905Z,10.06
2022-12-22T00:43:05.374Z,10.09
2022-12-22T00:45:50.758Z,10.14
2022-12-22T00:48:43.677Z,10.10
2022-12-22T00:51:30.711Z,10.12
2022-12-22T00:54:15.807Z,10.14
2022-12-22T00:57:01.665Z,10.13
2022-12-22T00:59:47.754Z,10.16
2022-12-22T01:02:33.574Z,10.13
2022-12-22T01:05:18.734Z,10.10
2022-12-22T01:08:03.957Z,10.14
2022-12-22T01:10:49.237Z,10.19
2022-12-22T01:13:34.890Z,10.13
2022-12-22T01:16:20.593Z,10.14
2022-12-22T01:19:05.986Z,10.13
2022-12-22T01:21:51.422Z,10.16
2022-12-22T01:24:37.272Z,10.09
2022-12-22T01:27:23.689Z,10.12
2022-12-22T01:30:09.126Z,10.11
2022-12-22T01:32:54.484Z,10.10
2022-12-22T01:35:42.767Z,10.10
2022-12-22T01:38:28.312Z,10.07
2022-12-22T01:41:15.464Z,10.08
2022-12-22T01:44:00.787Z,10.06
2022-12-22T01:46:47.789Z,10.03
2022-12-22T01:49:35.695Z,9.98
2022-12-22T01:52:21.452Z,9.96
2022-12-22T01:55:08.315Z,9.96
2022-12-22T01:57:53.684Z,9.97
2022-12-22T02:00:39.192Z,9.89
2022-12-22T02:03:36.748Z,9.91
2022-12-22T02:06:33.961Z,9.91
2022-12-22T02:09:54.592Z,9.88
2022-12-22T02:12:46.972Z,9.88
2022-12-22T02:15:49.576Z,9.84
2022-12-22T02:18:44.637Z,9.78
2022-12-22T02:21:34.454Z,9.79
2022-12-22T02:24:29.362Z,9.84
2022-12-22T02:27:17.874Z,9.78
2022-12-22T02:30:25.497Z,9.78
2022-12-22T02:33:10.982Z,9.77
2022-12-22T02:36:20.621Z,9.84
2022-12-22T02:39:17.697Z,9.77
2022-12-22T02:42:21.252Z,9.74
2022-12-22T02:45:23.183Z,9.82
2022-12-22T02:48:50.272Z,9.77
2022-12-22T02:51:40.550Z,9.82
2022-12-22T02:54:26.754Z,9.79
2022-12-22T02:57:12.760Z,9.74
2022-12-22T02:59:57.961Z,9.73
2022-12-22T03:02:43.683Z,9.74
2022-12-22T03:05:29.060Z,9.75
2022-12-22T03:08:14.442Z,9.82
2022-12-22T03:10:59.635Z,9.81
2022-12-22T03:13:45.046Z,9.81
2022-12-22T03:16:30.726Z,9.82
2022-12-22T03:19:16.061Z,9.80
2022-12-22T03:22:01.226Z,9.79
2022-12-22T03:24:46.697Z,9.83
2022-12-22T03:27:13.609Z,9.80
2022-12-22T03:29:40.285Z,9.83
2022-12-22T03:32:07.158Z,9.81
2022-12-22T03:34:33.949Z,9.84
2022-12-22T03:37:00.718Z,9.86
2022-12-22T03:39:27.378Z,9.82
2022-12-22T03:42:12.807Z,9.86
2022-12-22T03:44:57.846Z,9.82
2022-12-22T03:47:24.505Z,9.86
2022-12-22T03:49:51.199Z,9.84
2022-12-22T03:52:17.917Z,9.93
2022-12-22T03:54:44.683Z,9.94
2022-12-22T03:57:11.402Z,9.96
2022-12-22T03:59:38.164Z,9.97
2022-12-22T04:02:06.889Z,9.96
2022-12-22T04:04:34.112Z,9.99
2022-12-22T04:07:00.883Z,10.04
2022-12-22T04:09:27.835Z,10.01
2022-12-22T04:12:12.977Z,10.04
2022-12-22T04:14:39.813Z,10.06
2022-12-22T04:17:07.434Z,10.05
2022-12-22T04:19:34.248Z,10.07
2022-12-22T04:22:01.395Z,10.10
2022-12-22T04:24:28.237Z,10.07
2022-12-22T04:26:54.993Z,10.09
2022-12-22T04:29:21.784Z,10.05
2022-12-22T04:31:48.611Z,10.07
2022-12-22T04:34:15.709Z,10.05
2022-12-22T04:36:42.535Z,10.11
2022-12-22T04:39:09.296Z,10.06
2022-12-22T04:41:36.064Z,10.08
2022-12-22T04:44:02.837Z,10.18
2022-12-22T04:46:29.617Z,10.19
2022-12-22T04:49:00.246Z,10.25
2022-12-22T04:51:28.514Z,10.25
2022-12-22T04:53:55.409Z,10.32
2022-12-22T04:56:22.203Z,10.32
2022-12-22T04:58:48.955Z,10.32
2022-12-22T05:01:17.787Z,10.29
2022-12-22T05:03:44.701Z,10.36
2022-12-22T05:06:14.024Z,10.37
2022-12-22T05:08:41.008Z,10.32
2022-12-22T05:11:08.170Z,10.43
2022-12-22T05:13:35.080Z,10.45
2022-12-22T05:16:10.391Z,10.41
2022-12-22T05:18:38.451Z,10.37
2022-12-22T05:21:16.460Z,10.38
2022-12-22T05:23:43.943Z,10.36
2022-12-22T05:26:11.752Z,10.36
2022-12-22T05:28:38.508Z,10.37
2022-12-22T05:31:07.300Z,10.35
2022-12-22T05:33:34.495Z,10.38
2022-12-22T05:36:01.742Z,10.36
2022-12-22T05:38:28.966Z,10.30
2022-12-22T05:41:01.515Z,10.33
2022-12-22T05:43:30.500Z,10.34
2022-12-22T05:45:58.766Z,10.33
2022-12-22T05:48:30.801Z,10.34
2022-12-22T05:51:00.639Z,10.34
2022-12-22T05:53:27.496Z,10.29
2022-12-22T05:55:54.306Z,10.33
2022-12-22T05:58:21.160Z,10.30
2022-12-22T06:00:47.870Z,10.35
2022-12-22T06:03:14.855Z,10.36
2022-12-22T06:05:41.625Z,10.35
2022-12-22T06:08:08.352Z,10.35
2022-12-22T06:10:35.235Z,10.37
2022-12-22T06:13:02.210Z,10.38
2022-12-22T06:15:29.003Z,10.41
2022-12-22T06:17:55.697Z,10.49
2022-12-22T06:20:22.590Z,10.49
2022-12-22T06:22:49.266Z,10.56
2022-12-22T06:25:18.664Z,10.75
2022-12-22T06:27:47.280Z,10.86
2022-12-22T06:30:16.015Z,10.90
2022-12-22T06:32:43.032Z,10.94
2022-12-22T06:35:10.624Z,11.03
2022-12-22T06:37:37.546Z,11.04
2022-12-22T06:40:05.048Z,11.02
2022-12-22T06:42:50.562Z,11.09
2022-12-22T06:45:17.324Z,11.07
2022-12-22T06:47:44.164Z,11.06
2022-12-22T06:50:11.264Z,11.13
2022-12-22T06:52:38.165Z,11.08
2022-12-22T06:55:05.320Z,11.13
2022-12-22T06:57:32.121Z,11.14
2022-12-22T06:59:58.837Z,11.13
2022-12-22T07:02:26.003Z,11.11
2022-12-22T07:04:52.851Z,11.14
2022-12-22T07:07:19.526Z,11.06
2022-12-22T07:09:46.457Z,11.13
2022-12-22T07:12:13.305Z,11.11
2022-12-22T07:14:40.684Z,11.13
2022-12-22T07:17:09.195Z,11.21
2022-12-22T07:19:35.910Z,11.24
2022-12-22T07:22:02.671Z,11.34
2022-12-22T07:24:29.551Z,11.33
2022-12-22T07:26:56.351Z,11.30
2022-12-22T07:29:23.427Z,11.14
2022-12-22T07:31:50.224Z,11.18
2022-12-22T07:34:17.003Z,11.26
2022-12-22T07:36:43.745Z,11.16
2022-12-22T07:39:12.019Z,11.15
2022-12-22T07:41:57.483Z,11.16
2022-12-22T07:44:24.607Z,11.14
2022-12-22T07:46:51.437Z,11.04
2022-12-22T07:49:36.644Z,11.04
2022-12-22T07:52:03.564Z,11.04
2022-12-22T07:54:30.395Z,11.02
2022-12-22T07:56:57.340Z,11.02
2022-12-22T07:59:24.187Z,10.98
2022-12-22T08:01:51.175Z,10.95
2022-12-22T08:04:18.551Z,10.91
2022-12-22T08:06:45.365Z,10.90
2022-12-22T08:09:17.819Z,10.95
2022-12-22T08:11:44.598Z,10.92
2022-12-22T08:14:11.292Z,10.95
2022-12-22T08:16:38.040Z,10.88
2022-12-22T08:19:04.795Z,10.92
2022-12-22T08:21:31.610Z,10.91
2022-12-22T08:23:58.298Z,10.86
2022-12-22T08:26:31.218Z,10.88
2022-12-22T08:29:09.061Z,10.90
2022-12-22T08:31:35.897Z,10.85
2022-12-22T08:34:06.068Z,10.80
2022-12-22T08:36:36.885Z,10.81
2022-12-22T08:39:04.697Z,10.83
2022-12-22T08:41:50.446Z,10.83
2022-12-22T08:44:39.139Z,10.83
2022-12-22T08:47:08.882Z,10.81
2022-12-22T08:49:38.264Z,10.84
2022-12-22T08:52:05.057Z,10.80
2022-12-22T08:54:33.052Z,10.74
2022-12-22T08:56:59.868Z,10.75
2022-12-22T08:59:26.627Z,10.72
2022-12-22T09:01:53.607Z,10.72
2022-12-22T09:04:21.862Z,10.73
2022-12-22T09:06:48.850Z,10.74
2022-12-22T09:09:16.717Z,10.75
2022-12-22T09:11:44.427Z,10.68
2022-12-22T09:14:11.846Z,10.70
2022-12-22T09:16:39.570Z,10.77
2022-12-22T09:19:07.194Z,10.71
2022-12-22T09:21:34.727Z,10.71
2022-12-22T09:24:01.393Z,10.64
2022-12-22T09:26:29.243Z,10.57
2022-12-22T09:28:56.333Z,10.54
2022-12-22T09:31:25.050Z,10.56
2022-12-22T09:33:52.315Z,10.60
2022-12-22T09:36:24.937Z,10.59
2022-12-22T09:38:52.107Z,10.60
2022-12-22T09:41:31.851Z,10.53
2022-12-22T09:44:04.395Z,10.54
2022-12-22T09:46:35.252Z,10.62
2022-12-22T09:49:02.588Z,10.62
2022-12-22T09:51:30.350Z,10.63
2022-12-22T09:54:01.244Z,10.62
2022-12-22T09:56:29.404Z,10.63
2022-12-22T09:58:57.145Z,10.65
2022-12-22T10:01:42.702Z,10.56
2022-12-22T10:04:24.385Z,10.54
2022-12-22T10:07:26.269Z,10.59
2022-12-22T10:09:53.222Z,10.56
2022-12-22T10:12:25.534Z,10.55
2022-12-22T10:14:54.309Z,10.56
2022-12-22T10:17:32.451Z,10.57
2022-12-22T10:20:08.728Z,10.57
2022-12-22T10:22:45.877Z,10.55
2022-12-22T10:25:27.877Z,10.62
2022-12-22T10:28:02.305Z,10.58
2022-12-22T10:30:32.414Z,10.56
2022-12-22T10:33:11.011Z,10.52
2022-12-22T10:35:54.797Z,10.50
2022-12-22T10:38:37.345Z,10.47
2022-12-22T10:41:17.980Z,10.46
2022-12-22T10:43:52.008Z,10.54
2022-12-22T10:46:28.983Z,10.59
2022-12-22T10:49:19.811Z,10.51
2022-12-22T10:51:50.233Z,10.53
2022-12-22T10:54:27.169Z,10.53
2022-12-22T10:57:26.413Z,10.61
2022-12-22T10:59:57.609Z,10.58
2022-12-22T11:02:36.146Z,10.63
2022-12-22T11:05:11.005Z,10.66
2022-12-22T11:07:42.538Z,10.66
2022-12-22T11:10:15.374Z,10.61
2022-12-22T11:12:57.424Z,10.58
2022-12-22T11:15:33.368Z,10.59
2022-12-22T11:18:29.174Z,10.60
2022-12-22T11:21:18.737Z,10.54
2022-12-22T11:23:50.300Z,10.59
2022-12-22T11:26:47.830Z,10.53
2022-12-22T11:29:40.823Z,10.59
2022-12-22T11:32:30.743Z,10.65
2022-12-22T11:35:26.584Z,10.63
2022-12-22T11:37:59.256Z,10.66
2022-12-22T11:40:29.190Z,10.65
2022-12-22T11:43:17.339Z,10.63
2022-12-22T11:45:46.802Z,10.64
2022-12-22T11:48:36.379Z,10.75
2022-12-22T11:51:26.972Z,10.74
2022-12-22T11:53:54.290Z,10.71
2022-12-22T11:56:38.519Z,10.74
2022-12-22T11:59:30.255Z,10.72
2022-12-22T12:02:04.547Z,10.75
2022-12-22T12:04:38.144Z,10.82
2022-12-22T12:07:38.694Z,11.01
2022-12-22T12:10:24.610Z,11.00
2022-12-22T12:13:16.786Z,11.24
2022-12-22T12:15:51.359Z,11.25
2022-12-22T12:18:37.108Z,11.12
2022-12-22T12:21:18.278Z,11.03
2022-12-22T12:24:03.930Z,10.97
2022-12-22T12:26:39.930Z,11.04
2022-12-22T12:29:28.280Z,10.88
2022-12-22T12:32:18.799Z,10.82
2022-12-22T12:34:49.537Z,10.78
2022-12-22T12:37:38.045Z,10.71
2022-12-22T12:40:16.707Z,10.75
2022-12-22T12:42:45.407Z,10.75
2022-12-22T12:45:42.528Z,10.77
2022-12-22T12:48:21.472Z,10.79
2022-12-22T12:50:49.593Z,10.87
2022-12-22T12:53:18.088Z,10.79
2022-12-22T12:55:51.655Z,10.84
2022-12-22T12:58:39.434Z,11.05
2022-12-22T13:01:06.201Z,11.14
2022-12-22T13:06:59.736Z,11.16
2022-12-22T13:12:38.282Z,11.16
2022-12-22T13:15:35.374Z,11.20
2022-12-22T13:18:07.175Z,11.19
2022-12-22T13:20:36.476Z,11.15
2022-12-22T13:23:12.362Z,11.07
2022-12-22T13:25:49.890Z,10.99
2022-12-22T13:28:21.526Z,10.90
2022-12-22T13:30:50.501Z,10.94
2022-12-22T13:33:21.009Z,10.90
2022-12-22T13:35:54.967Z,10.82
2022-12-22T13:38:31.671Z,10.71
2022-12-22T13:41:04.153Z,10.84
2022-12-22T13:43:32.466Z,10.93
2022-12-22T13:46:02.277Z,10.78
2022-12-22T13:48:43.667Z,10.72
2022-12-22T13:51:25.303Z,10.68
2022-12-22T13:54:12.655Z,10.63
2022-12-22T13:56:42.755Z,10.66
2022-12-22T13:59:27.881Z,10.60
2022-12-22T14:02:03.165Z,10.57
2022-12-22T14:04:30.465Z,10.44
2022-12-22T14:06:57.324Z,10.52
2022-12-22T14:09:28.219Z,10.57
2022-12-22T14:12:00.927Z,10.53
2022-12-22T14:14:31.271Z,10.55
2022-12-22T14:17:00.707Z,10.55
2022-12-22T14:19:36.540Z,10.51
2022-12-22T14:22:14.614Z,10.53
2022-12-22T14:24:44.711Z,10.53
2022-12-22T14:27:37.613Z,10.50
2022-12-22T14:30:14.436Z,10.55
2022-12-22T14:32:54.756Z,10.57
2022-12-22T14:35:25.790Z,10.51
2022-12-22T14:38:14.002Z,10.51
2022-12-22T14:40:43.195Z,10.52
2022-12-22T14:43:18.819Z,10.48
2022-12-22T14:45:48.137Z,10.51
2022-12-22T14:48:26.378Z,10.52
2022-12-22T14:50:54.276Z,10.48
2022-12-22T14:53:45.116Z,10.37
2022-12-22T14:56:13.484Z,10.39
2022-12-22T14:58:42.869Z,10.42
2022-12-22T15:01:36.119Z,10.39
2022-12-22T15:04:20.236Z,10.32
2022-12-22T15:06:48.492Z,10.24
2022-12-22T15:09:15.489Z,10.26
2022-12-22T15:11:49.386Z,10.28
2022-12-22T15:14:17.727Z,10.22
2022-12-22T15:16:45.845Z,10.24
2022-12-22T15:19:17.441Z,10.15
2022-12-22T15:21:44.804Z,10.18
2022-12-22T15:24:13.521Z,10.10
2022-12-22T15:26:40.295Z,10.09
2022-12-22T15:29:07.292Z,10.02
2022-12-22T15:31:34.169Z,9.98
2022-12-22T15:34:03.707Z,9.98
2022-12-22T15:36:30.527Z,9.97
2022-12-22T15:38:57.217Z,9.90
2022-12-22T15:41:24.308Z,9.87
2022-12-22T15:43:57.731Z,9.77
2022-12-22T15:46:25.029Z,9.81
2022-12-22T15:48:52.287Z,9.72
2022-12-22T15:51:26.255Z,9.72
2022-12-22T15:53:54.052Z,9.70
2022-12-22T15:56:24.014Z,9.70
2022-12-22T15:58:50.950Z,9.59
2022-12-22T16:01:17.825Z,9.61
2022-12-22T16:03:44.783Z,9.64
2022-12-22T16:06:16.538Z,9.61
2022-12-22T16:08:49.634Z,9.52
2022-12-22T16:11:17.286Z,9.44
2022-12-22T16:13:44.918Z,9.39
2022-12-22T16:16:12.339Z,9.41
2022-12-22T16:18:39.252Z,9.37
2022-12-22T16:21:11.571Z,9.33
2022-12-22T16:23:39.996Z,9.33
2022-12-22T16:26:06.785Z,9.27
2022-12-22T16:28:33.844Z,9.25
2022-12-22T16:31:01.367Z,9.27
2022-12-22T16:33:28.358Z,9.21
2022-12-22T16:35:55.031Z,9.21
2022-12-22T16:38:21.888Z,9.19
2022-12-22T16:40:51.761Z,9.18
2022-12-22T16:46:14.079Z,9.12
2022-12-22T16:49:01.656Z,9.13
2022-12-22T16:51:34.289Z,9.13
2022-12-22T16:54:01.815Z,9.14
2022-12-22T16:56:30.640Z,9.08
2022-12-22T16:58:57.946Z,9.05
2022-12-22T17:01:40.476Z,9.00
2022-12-22T17:04:16.417Z,8.99
2022-12-22T17:06:43.647Z,9.00
2022-12-22T17:09:15.695Z,8.97
2022-12-22T17:11:45.217Z,8.96
2022-12-22T17:14:34.433Z,8.91
2022-12-22T17:17:01.258Z,8.93
2022-12-22T17:19:28.392Z,8.94
2022-12-22T17:21:57.894Z,8.93
2022-12-22T17:24:28.236Z,8.93
2022-12-22T17:26:59.918Z,8.91
2022-12-22T17:29:26.699Z,8.88
2022-12-22T17:31:56.751Z,8.90
2022-12-22T17:34:24.122Z,8.86
2022-12-22T17:36:51.164Z,8.90
2022-12-22T17:39:21.290Z,8.89
2022-12-22T17:41:54.344Z,8.89
2022-12-22T17:44:25.264Z,8.89
2022-12-22T17:46:52.318Z,8.88
2022-12-22T17:49:22.274Z,8.88
2022-12-22T17:51:50.263Z,8.87
2022-12-22T17:54:25.846Z,8.91
2022-12-22T17:56:56.735Z,8.88
2022-12-22T17:59:23.453Z,8.91
2022-12-22T18:01:50.353Z,8.94
2022-12-22T18:04:17.876Z,8.95
2022-12-22T18:06:44.994Z,8.97
2022-12-22T18:09:26.275Z,8.98
2022-12-22T18:11:53.372Z,9.00
2022-12-22T18:14:22.213Z,9.03
2022-12-22T18:16:48.925Z,9.02
2022-12-22T18:19:15.720Z,8.98
2022-12-22T18:21:43.489Z,9.02
2022-12-22T18:24:18.018Z,9.03
2022-12-22T18:26:47.125Z,9.02
2022-12-22T18:29:17.922Z,9.03
2022-12-22T18:31:45.217Z,9.03
2022-12-22T18:34:12.384Z,9.05
2022-12-22T18:36:40.256Z,9.06
2022-12-22T18:39:16.800Z,9.09
2022-12-22T18:41:44.095Z,9.06
2022-12-22T18:44:18.671Z,9.07
2022-12-22T18:46:45.940Z,9.05
2022-12-22T18:49:13.384Z,9.04
2022-12-22T18:51:40.600Z,9.06
2022-12-22T18:54:22.407Z,9.07
2022-12-22T18:56:50.767Z,9.06
2022-12-22T18:59:25.754Z,9.04
2022-12-22T19:01:52.797Z,9.04
2022-12-22T19:04:19.686Z,9.00
2022-12-22T19:06:46.577Z,9.02
2022-12-22T19:09:15.129Z,8.98
2022-12-22T19:11:42.940Z,8.99
2022-12-22T19:14:20.635Z,9.01
2022-12-22T19:16:48.118Z,8.99
2022-12-22T19:19:20.047Z,8.97
2022-12-22T19:21:48.749Z,8.97
2022-12-22T19:24:15.594Z,8.95
2022-12-22T19:26:42.410Z,8.97
2022-12-22T19:29:14.469Z,8.96
2022-12-22T19:31:41.593Z,8.99
2022-12-22T19:34:17.512Z,9.03
2022-12-22T19:36:44.256Z,9.03
2022-12-22T19:39:10.949Z,9.05
2022-12-22T19:41:43.610Z,9.07
2022-12-22T19:44:19.925Z,9.04
2022-12-22T19:46:47.478Z,9.08
2022-12-22T19:49:20.016Z,9.10
2022-12-22T19:51:46.870Z,9.09
2022-12-22T19:54:14.584Z,9.14
2022-12-22T19:56:43.201Z,9.11
2022-12-22T19:59:26.933Z,9.14
2022-12-22T20:01:56.230Z,9.19
2022-12-22T20:04:23.072Z,9.16
2022-12-22T20:06:49.900Z,9.19
2022-12-22T20:09:16.609Z,9.24
2022-12-22T20:11:44.067Z,9.28
2022-12-22T20:14:19.923Z,9.30
2022-12-22T20:16:46.763Z,9.29
2022-12-22T20:19:16.795Z,9.32
2022-12-22T20:21:43.749Z,9.27
2022-12-22T20:24:19.592Z,9.29
2022-12-22T20:26:52.007Z,9.31
2022-12-22T20:29:21.223Z,9.31
2022-12-22T20:31:47.947Z,9.34
2022-12-22T20:34:14.760Z,9.35
2022-12-22T20:36:43.335Z,9.39
2022-12-22T20:39:16.435Z,9.41
2022-12-22T20:41:47.055Z,9.45
2022-12-22T20:44:17.564Z,9.40
2022-12-22T20:46:44.345Z,9.38
2022-12-22T20:49:15.054Z,9.37
2022-12-22T20:51:42.142Z,9.38
2022-12-22T20:54:14.084Z,9.37
2022-12-22T20:56:42.961Z,9.37
2022-12-22T20:59:19.252Z,9.37
2022-12-22T21:01:47.032Z,9.37
2022-12-22T21:04:15.117Z,9.35
2022-12-22T21:06:54.075Z,9.33
2022-12-22T21:09:21.277Z,9.36
2022-12-22T21:11:48.179Z,9.33
2022-12-22T21:14:15.234Z,9.37
2022-12-22T21:16:42.738Z,9.34
2022-12-22T21:19:17.160Z,9.34
2022-12-22T21:21:43.923Z,9.32
2022-12-22T21:24:10.678Z,9.35
2022-12-22T21:26:42.910Z,9.33
2022-12-22T21:29:16.090Z,9.34
2022-12-22T21:31:42.890Z,9.35
2022-12-22T21:34:12.756Z,9.33
2022-12-22T21:36:40.387Z,9.32
2022-12-22T21:39:31.724Z,9.34
2022-12-22T21:42:01.421Z,9.36
2022-12-22T21:44:30.041Z,9.31
2022-12-22T21:46:57.368Z,9.30
2022-12-22T21:49:26.577Z,9.30
2022-12-22T21:51:54.280Z,9.34
2022-12-22T21:54:22.991Z,9.34
2022-12-22T21:56:51.356Z,9.30
2022-12-22T21:59:18.252Z,9.32
2022-12-22T22:01:45.525Z,9.30
2022-12-22T22:04:12.895Z,9.34
2022-12-22T22:06:39.859Z,9.30
2022-12-22T22:09:07.380Z,9.31
2022-12-22T22:11:54.546Z,9.29
2022-12-22T22:14:22.211Z,9.31
2022-12-22T22:16:49.137Z,9.32
2022-12-22T22:19:17.992Z,9.32
2022-12-22T22:21:48.107Z,9.31
2022-12-22T22:24:14.822Z,9.29
2022-12-22T22:26:44.851Z,9.31
2022-12-22T22:29:11.665Z,9.32
2022-12-22T22:31:40.455Z,9.30
2022-12-22T22:34:07.354Z,9.31
2022-12-22T22:36:34.156Z,9.30
2022-12-22T22:39:00.933Z,9.27
2022-12-22T22:41:29.333Z,9.31
2022-12-22T22:43:56.110Z,9.30
2022-12-22T22:46:23.085Z,9.30
2022-12-22T22:48:50.020Z,9.29
2022-12-22T22:51:16.794Z,9.27
2022-12-22T22:53:43.465Z,9.25
2022-12-22T22:56:10.165Z,9.28
2022-12-22T22:58:36.933Z,9.27
2022-12-22T23:01:07.906Z,9.26
2022-12-22T23:03:35.255Z,9.27
2022-12-22T23:06:05.934Z,9.26
2022-12-22T23:08:33.606Z,9.25
2022-12-22T23:11:01.450Z,9.24
2022-12-22T23:13:28.957Z,9.25
2022-12-22T23:16:00.286Z,9.17
2022-12-22T23:18:28.851Z,9.20
2022-12-22T23:20:59.902Z,9.22
2022-12-22T23:23:27.309Z,9.20
2022-12-22T23:25:54.279Z,9.20
2022-12-22T23:28:21.268Z,9.25
2022-12-22T23:30:50.913Z,9.23
2022-12-22T23:33:18.607Z,9.23
2022-12-22T23:35:48.251Z,9.18
2022-12-22T23:38:15.815Z,9.24
2022-12-22T23:40:52.451Z,9.18
2022-12-22T23:43:20.628Z,9.18
2022-12-22T23:45:47.350Z,9.20
2022-12-22T23:48:14.164Z,9.17
2022-12-22T23:50:40.949Z,9.18
2022-12-22T23:53:07.722Z,9.16
2022-12-22T23:55:34.416Z,9.12
2022-12-22T23:58:01.113Z,9.12
